createdAt,value
2023-01-31T00:01:41.162Z,100849.97
2023-01-31T00:04:12.304Z,100861.59
2023-01-31T00:06:43.546Z,100856.72
2023-01-31T00:09:12.779Z,100859.34
2023-01-31T00:11:40.117Z,100842.81
2023-01-31T00:14:10.672Z,100857.94
2023-01-31T00:16:38.417Z,100864.06
2023-01-31T00:19:05.704Z,100843.03
2023-01-31T00:21:32.829Z,100874.25
2023-01-31T00:24:00.106Z,100865.69
2023-01-31T00:26:30.795Z,100871.19
2023-01-31T00:29:00.601Z,100874.84
2023-01-31T00:31:30.892Z,100896.06
2023-01-31T00:33:58.669Z,100877.50
2023-01-31T00:36:35.973Z,100873.19
2023-01-31T00:39:06.191Z,100898.94
2023-01-31T00:41:33.727Z,100902.00
2023-01-31T00:44:01.251Z,100895.25
2023-01-31T00:46:28.781Z,100899.53
2023-01-31T00:48:56.647Z,100910.56
2023-01-31T00:51:26.865Z,100917.69
2023-01-31T00:53:55.004Z,100921.56
2023-01-31T00:56:24.682Z,100931.16
2023-01-31T00:58:52.445Z,100931.16
2023-01-31T01:01:27.146Z,100924.25
2023-01-31T01:03:56.645Z,100940.59
2023-01-31T01:06:24.283Z,100939.41
2023-01-31T01:08:51.941Z,100936.13
2023-01-31T01:11:29.201Z,100951.06
2023-01-31T01:13:57.858Z,100960.06
2023-01-31T01:16:36.619Z,100954.75
2023-01-31T01:19:07.167Z,100966.41
2023-01-31T01:21:39.382Z,100948.66
2023-01-31T01:24:12.984Z,100949.88
2023-01-31T01:26:40.244Z,100948.25
2023-01-31T01:29:07.221Z,100961.94
2023-01-31T01:31:34.965Z,100967.47
2023-01-31T01:34:14.894Z,100950.28
2023-01-31T01:36:42.787Z,100950.09
2023-01-31T01:39:12.122Z,100964.81
2023-01-31T01:41:40.492Z,100975.22
2023-01-31T01:44:46.616Z,100975.03
2023-01-31T01:47:57.523Z,100975.84
2023-01-31T01:50:39.817Z,100981.38
2023-01-31T01:53:22.251Z,100980.53
2023-01-31T01:56:00.413Z,100989.34
2023-01-31T01:58:34.095Z,101000.38
2023-01-31T02:01:04.182Z,100985.44
2023-01-31T02:03:31.210Z,101014.28
2023-01-31T02:06:05.395Z,101019.38
2023-01-31T02:08:36.164Z,101015.91
2023-01-31T02:11:23.040Z,101027.56
2023-01-31T02:13:54.786Z,101009.97
2023-01-31T02:16:22.051Z,101032.25
2023-01-31T02:18:49.456Z,101039.84
2023-01-31T02:21:47.230Z,101030.84
2023-01-31T02:24:37.146Z,101025.72
2023-01-31T02:27:31.302Z,101048.63
2023-01-31T02:30:34.991Z,101068.03
2023-01-31T02:33:21.632Z,101048.63
2023-01-31T02:36:19.512Z,101052.94
2023-01-31T02:38:59.481Z,101068.25
2023-01-31T02:41:33.228Z,101090.53
2023-01-31T02:44:32.504Z,101075.63
2023-01-31T02:47:26.030Z,101067.66
2023-01-31T02:50:13.247Z,101069.09
2023-01-31T02:52:50.885Z,101075.22
2023-01-31T02:55:54.970Z,101063.56
2023-01-31T02:58:25.546Z,101067.03
2023-01-31T03:00:58.211Z,101069.69
2023-01-31T03:03:33.085Z,101061.50
2023-01-31T03:06:34.252Z,101062.94
2023-01-31T03:09:22.792Z,101052.31
2023-01-31T03:12:06.276Z,101048.00
2023-01-31T03:14:48.274Z,101063.31
2023-01-31T03:18:05.964Z,101060.84
2023-01-31T03:20:53.723Z,101056.94
2023-01-31T03:23:31.100Z,101055.69
2023-01-31T03:26:00.268Z,101065.69
2023-01-31T03:28:40.152Z,101062.19
2023-01-31T03:31:23.324Z,101074.41
2023-01-31T03:33:55.866Z,101077.88
2023-01-31T03:37:10.759Z,101076.34
2023-01-31T03:40:42.030Z,101094.72
2023-01-31T03:43:22.276Z,101086.28
2023-01-31T03:46:07.691Z,101089.38
2023-01-31T03:48:43.236Z,101096.25
2023-01-31T03:51:26.073Z,101120.13
2023-01-31T03:53:59.718Z,101107.63
2023-01-31T03:56:43.460Z,101103.53
2023-01-31T03:59:23.941Z,101103.53
2023-01-31T04:01:53.800Z,101101.66
2023-01-31T04:04:25.766Z,101112.66
2023-01-31T04:06:52.819Z,101112.22
2023-01-31T04:09:23.097Z,101102.00
2023-01-31T04:11:51.384Z,101120.56
2023-01-31T04:14:19.483Z,101122.78
2023-01-31T04:16:46.428Z,101122.38
2023-01-31T04:19:13.338Z,101128.69
2023-01-31T04:21:40.364Z,101123.56
2023-01-31T04:24:09.430Z,101124.59
2023-01-31T04:26:37.184Z,101143.97
2023-01-31T04:29:04.732Z,101137.22
2023-01-31T04:31:32.543Z,101117.22
2023-01-31T04:33:59.776Z,101118.66
2023-01-31T04:36:27.388Z,101132.91
2023-01-31T04:38:54.355Z,101136.97
2023-01-31T04:41:21.417Z,101135.13
2023-01-31T04:43:48.467Z,101131.66
2023-01-31T04:46:15.354Z,101145.13
2023-01-31T04:48:42.332Z,101145.94
2023-01-31T04:51:09.795Z,101166.13
2023-01-31T04:53:37.079Z,101154.72
2023-01-31T04:56:05.771Z,101175.09
2023-01-31T04:58:32.882Z,101167.16
2023-01-31T05:00:59.877Z,101161.47
2023-01-31T05:03:27.051Z,101184.91
2023-01-31T05:05:53.900Z,101173.09
2023-01-31T05:08:20.914Z,101171.44
2023-01-31T05:10:48.467Z,101189.63
2023-01-31T05:13:15.423Z,101184.75
2023-01-31T05:15:42.392Z,101163.34
2023-01-31T05:18:09.353Z,101177.25
2023-01-31T05:20:40.785Z,101172.56
2023-01-31T05:23:08.265Z,101185.44
2023-01-31T05:25:37.061Z,101191.38
2023-01-31T05:28:05.186Z,101189.53
2023-01-31T05:30:32.609Z,101185.06
2023-01-31T05:32:59.867Z,101184.03
2023-01-31T05:35:27.096Z,101168.94
2023-01-31T05:37:55.437Z,101173.44
2023-01-31T05:40:24.210Z,101180.38
2023-01-31T05:42:56.033Z,101190.59
2023-01-31T05:45:24.140Z,101191.25
2023-01-31T05:47:51.197Z,101189.22
2023-01-31T05:50:19.611Z,101195.38
2023-01-31T05:52:55.534Z,101194.00
2023-01-31T05:55:23.083Z,101194.63
2023-01-31T05:57:50.030Z,101176.28
2023-01-31T06:00:17.480Z,101178.97
2023-01-31T06:02:44.541Z,101182.06
2023-01-31T06:05:12.057Z,101194.19
2023-01-31T06:07:39.404Z,101193.78
2023-01-31T06:10:08.332Z,101190.38
2023-01-31T06:12:35.819Z,101192.44
2023-01-31T06:15:03.287Z,101192.88
2023-01-31T06:17:30.849Z,101195.78
2023-01-31T06:19:58.311Z,101201.75
2023-01-31T06:22:25.356Z,101200.72
2023-01-31T06:24:52.246Z,101200.53
2023-01-31T06:27:19.256Z,101212.41
2023-01-31T06:29:46.122Z,101223.06
2023-01-31T06:32:13.189Z,101219.00
2023-01-31T06:34:40.248Z,101205.91
2023-01-31T06:37:10.920Z,101222.69
2023-01-31T06:39:38.196Z,101224.34
2023-01-31T06:42:05.811Z,101224.34
2023-01-31T06:44:37.668Z,101234.19
2023-01-31T06:47:04.889Z,101220.91
2023-01-31T06:49:31.937Z,101228.66
2023-01-31T06:51:58.903Z,101215.81
2023-01-31T06:54:25.834Z,101213.78
2023-01-31T06:56:52.859Z,101209.69
2023-01-31T06:59:19.864Z,101219.31
2023-01-31T07:01:47.020Z,101210.72
2023-01-31T07:04:14.246Z,101218.09
2023-01-31T07:06:41.307Z,101224.47
2023-01-31T07:09:08.311Z,101216.28
2023-01-31T07:11:37.578Z,101212.00
2023-01-31T07:14:05.044Z,101222.03
2023-01-31T07:16:32.404Z,101221.63
2023-01-31T07:18:59.535Z,101210.16
2023-01-31T07:21:26.490Z,101207.38
2023-01-31T07:23:53.491Z,101216.16
2023-01-31T07:26:20.897Z,101207.16
2023-01-31T07:28:48.142Z,101196.94
2023-01-31T07:31:15.403Z,101192.84
2023-01-31T07:33:42.597Z,101203.72
2023-01-31T07:36:14.921Z,101200.66
2023-01-31T07:38:42.583Z,101225.41
2023-01-31T07:41:11.667Z,101225.00
2023-01-31T07:43:38.950Z,101221.72
2023-01-31T07:46:10.338Z,101216.81
2023-01-31T07:48:38.718Z,101218.84
2023-01-31T07:51:06.408Z,101212.94
2023-01-31T07:53:39.804Z,101213.94
2023-01-31T07:56:07.897Z,101206.38
2023-01-31T07:58:36.195Z,101212.31
2023-01-31T08:01:23.247Z,101216.00
2023-01-31T08:03:50.247Z,101208.84
2023-01-31T08:06:17.213Z,101195.34
2023-01-31T08:08:46.088Z,101202.31
2023-01-31T08:11:13.109Z,101214.19
2023-01-31T08:13:40.167Z,101205.00
2023-01-31T08:16:09.448Z,101208.88
2023-01-31T08:18:38.110Z,101188.22
2023-01-31T08:21:06.786Z,101193.13
2023-01-31T08:23:34.257Z,101193.75
2023-01-31T08:26:17.390Z,101198.25
2023-01-31T08:28:46.523Z,101193.94
2023-01-31T08:31:23.603Z,101214.63
2023-01-31T08:33:52.999Z,101209.69
2023-01-31T08:36:23.552Z,101200.28
2023-01-31T08:38:51.451Z,101198.88
2023-01-31T08:41:20.999Z,101193.53
2023-01-31T08:43:57.506Z,101193.59
2023-01-31T08:46:27.686Z,101206.06
2023-01-31T08:48:54.823Z,101199.47
2023-01-31T08:51:22.881Z,101195.19
2023-01-31T08:53:51.306Z,101187.81
2023-01-31T08:56:21.123Z,101191.75
2023-01-31T08:58:48.123Z,101196.66
2023-01-31T09:01:18.508Z,101193.97
2023-01-31T09:03:46.578Z,101188.22
2023-01-31T09:06:21.924Z,101180.44
2023-01-31T09:08:48.968Z,101185.00
2023-01-31T09:11:18.861Z,101182.53
2023-01-31T09:13:51.134Z,101180.91
2023-01-31T09:16:19.513Z,101173.94
2023-01-31T09:18:46.834Z,101169.03
2023-01-31T09:21:17.688Z,101166.16
2023-01-31T09:23:47.348Z,101168.81
2023-01-31T09:26:15.906Z,101168.22
2023-01-31T09:28:43.418Z,101165.75
2023-01-31T09:31:31.426Z,101164.94
2023-01-31T09:33:58.405Z,101159.19
2023-01-31T09:36:25.328Z,101164.31
2023-01-31T09:38:56.767Z,101153.47
2023-01-31T09:41:33.929Z,101151.81
2023-01-31T09:44:21.186Z,101143.22
2023-01-31T09:47:24.792Z,101146.91
2023-01-31T09:50:01.840Z,101137.50
2023-01-31T09:52:31.163Z,101147.72
2023-01-31T09:54:58.423Z,101129.94
2023-01-31T09:58:04.822Z,101130.13
2023-01-31T10:00:46.958Z,101126.03
2023-01-31T10:04:05.823Z,101124.78
2023-01-31T10:06:49.055Z,101118.00
2023-01-31T10:09:45.366Z,101117.78
2023-01-31T10:12:22.809Z,101111.66
2023-01-31T10:15:01.083Z,101105.91
2023-01-31T10:17:44.101Z,101102.44
2023-01-31T10:20:22.945Z,101100.16
2023-01-31T10:23:00.589Z,101087.25
2023-01-31T10:25:35.348Z,101098.47
2023-01-31T10:28:14.170Z,101085.16
2023-01-31T10:31:07.344Z,101081.47
2023-01-31T10:33:47.822Z,101070.78
2023-01-31T10:36:39.371Z,101061.97
2023-01-31T10:39:26.695Z,101058.09
2023-01-31T10:42:34.934Z,101061.97
2023-01-31T10:45:29.119Z,101033.88
2023-01-31T10:48:18.060Z,101034.13
2023-01-31T10:51:11.853Z,101045.34
2023-01-31T10:54:13.321Z,101029.81
2023-01-31T10:56:59.051Z,101049.94
2023-01-31T10:59:35.383Z,101024.09
2023-01-31T11:02:03.218Z,101010.16
2023-01-31T11:04:43.581Z,101008.28
2023-01-31T11:07:11.530Z,101006.84
2023-01-31T11:09:43.911Z,101007.84
2023-01-31T11:12:11.034Z,100990.41
2023-01-31T11:14:39.155Z,100980.78
2023-01-31T11:17:21.539Z,100977.47
2023-01-31T11:19:56.157Z,100987.25
2023-01-31T11:22:33.345Z,100976.81
2023-01-31T11:25:06.444Z,100980.13
2023-01-31T11:27:44.076Z,100968.00
2023-01-31T11:30:33.140Z,100963.06
2023-01-31T11:33:00.099Z,100949.75
2023-01-31T11:35:35.270Z,100938.84
2023-01-31T11:38:22.131Z,100944.84
2023-01-31T11:40:49.707Z,100937.72
2023-01-31T11:43:19.547Z,100944.13
2023-01-31T11:45:56.376Z,100931.88
2023-01-31T11:48:44.389Z,100931.25
2023-01-31T11:51:27.144Z,100932.53
2023-01-31T11:53:54.274Z,100918.66
2023-01-31T11:56:26.445Z,100901.06
2023-01-31T11:58:57.568Z,100910.06
2023-01-31T12:01:26.685Z,100901.50
2023-01-31T12:04:04.615Z,100889.41
2023-01-31T12:06:41.045Z,100883.28
2023-01-31T12:09:27.490Z,100862.41
2023-01-31T12:12:01.256Z,100859.09
2023-01-31T12:14:42.337Z,100838.59
2023-01-31T12:17:16.198Z,100828.00
2023-01-31T12:20:28.381Z,100818.44
2023-01-31T12:23:11.884Z,100825.25
2023-01-31T12:26:03.540Z,100811.19
2023-01-31T12:28:36.618Z,100818.00
2023-01-31T12:31:10.320Z,100805.53
2023-01-31T12:33:58.943Z,100804.34
2023-01-31T12:37:04.744Z,100808.03
2023-01-31T12:39:55.216Z,100809.72
2023-01-31T12:42:57.810Z,100801.16
2023-01-31T12:45:59.199Z,100782.78
2023-01-31T12:48:44.974Z,100770.97
2023-01-31T12:51:38.211Z,100778.53
2023-01-31T12:54:10.768Z,100772.63
2023-01-31T12:57:00.390Z,100772.41
2023-01-31T12:59:42.643Z,100760.78
2023-01-31T13:02:44.914Z,100766.50
2023-01-31T13:08:29.749Z,100758.97
2023-01-31T13:11:16.095Z,100752.63
2023-01-31T13:13:51.505Z,100754.88
2023-01-31T13:16:34.024Z,100739.34
2023-01-31T13:19:13.491Z,100746.50
2023-01-31T13:21:46.717Z,100730.78
2023-01-31T13:24:20.291Z,100741.63
2023-01-31T13:26:53.107Z,100749.19
2023-01-31T13:29:32.177Z,100735.69
2023-01-31T13:32:09.017Z,100738.34
2023-01-31T13:34:51.201Z,100733.25
2023-01-31T13:37:21.191Z,100735.72
2023-01-31T13:39:58.643Z,100715.69
2023-01-31T13:42:26.406Z,100727.34
2023-01-31T13:44:54.893Z,100721.22
2023-01-31T13:47:32.081Z,100717.34
2023-01-31T13:50:06.317Z,100734.28
2023-01-31T13:52:52.796Z,100709.78
2023-01-31T13:55:36.402Z,100703.66
2023-01-31T13:58:20.401Z,100700.75
2023-01-31T14:01:27.064Z,100695.44
2023-01-31T14:04:12.498Z,100696.25
2023-01-31T14:07:14.515Z,100702.38
2023-01-31T14:10:10.394Z,100719.97
2023-01-31T14:12:37.858Z,100720.97
2023-01-31T14:15:48.630Z,100717.91
2023-01-31T14:18:36.084Z,100705.03
2023-01-31T14:21:31.051Z,100701.13
2023-01-31T14:24:00.537Z,100707.47
2023-01-31T14:26:42.713Z,100710.91
2023-01-31T14:29:15.276Z,100687.81
2023-01-31T14:31:45.156Z,100693.53
2023-01-31T14:34:26.757Z,100684.34
2023-01-31T14:37:21.225Z,100684.72
2023-01-31T14:40:09.866Z,100659.41
2023-01-31T14:43:10.391Z,100683.69
2023-01-31T14:49:29.951Z,100658.97
2023-01-31T14:52:25.609Z,100663.03
2023-01-31T14:55:20.140Z,100654.06
2023-01-31T14:57:51.673Z,100658.13
2023-01-31T15:00:30.698Z,100667.34
2023-01-31T15:03:20.967Z,100659.34
2023-01-31T15:05:52.403Z,100657.50
2023-01-31T15:08:19.730Z,100653.19
2023-01-31T15:11:14.793Z,100645.38
2023-01-31T15:13:49.608Z,100646.19
2023-01-31T15:16:34.930Z,100651.31
2023-01-31T15:19:23.880Z,100645.19
2023-01-31T15:21:59.572Z,100663.16
2023-01-31T15:24:33.637Z,100650.66
2023-01-31T15:27:03.141Z,100644.50
2023-01-31T15:29:50.051Z,100654.09
2023-01-31T15:32:23.075Z,100659.41
2023-01-31T15:35:14.661Z,100643.25
2023-01-31T15:37:42.722Z,100627.47
2023-01-31T15:40:21.560Z,100646.69
2023-01-31T15:42:48.483Z,100644.84
2023-01-31T15:45:29.847Z,100633.34
2023-01-31T15:48:16.275Z,100640.22
2023-01-31T15:50:56.660Z,100627.97
2023-01-31T15:53:27.972Z,100647.38
2023-01-31T15:55:59.283Z,100622.81
2023-01-31T15:58:28.984Z,100637.78
2023-01-31T16:01:01.858Z,100618.72
2023-01-31T16:03:34.564Z,100633.44
2023-01-31T16:06:02.406Z,100617.91
2023-01-31T16:08:36.004Z,100621.97
2023-01-31T16:11:06.154Z,100622.78
2023-01-31T16:13:37.978Z,100628.91
2023-01-31T16:16:10.346Z,100610.03
2023-01-31T16:18:38.405Z,100593.09
2023-01-31T16:21:15.893Z,100614.31
2023-01-31T16:23:43.563Z,100627.84
2023-01-31T16:26:25.312Z,100619.19
2023-01-31T16:28:57.877Z,100614.69
2023-01-31T16:31:32.859Z,100620.63
2023-01-31T16:34:04.618Z,100628.97
2023-01-31T16:36:34.827Z,100635.94
2023-01-31T16:39:06.014Z,100634.69
2023-01-31T16:42:23.610Z,100639.97
2023-01-31T16:44:51.528Z,100644.88
2023-01-31T16:47:50.712Z,100643.59
2023-01-31T16:50:18.088Z,100638.94
2023-01-31T16:52:49.172Z,100635.47
2023-01-31T16:55:20.317Z,100627.84
2023-01-31T16:57:48.248Z,100621.44
2023-01-31T17:00:24.447Z,100600.34
2023-01-31T17:02:57.283Z,100603.25
2023-01-31T17:05:35.393Z,100587.19
2023-01-31T17:08:03.094Z,100574.91
2023-01-31T17:10:33.733Z,100595.19
2023-01-31T17:13:18.536Z,100578.63
2023-01-31T17:15:45.728Z,100589.72
2023-01-31T17:18:12.993Z,100596.00
2023-01-31T17:20:50.765Z,100604.34
2023-01-31T17:23:18.987Z,100595.25
2023-01-31T17:25:46.627Z,100594.38
2023-01-31T17:28:13.699Z,100585.94
2023-01-31T17:30:45.221Z,100585.56
2023-01-31T17:33:15.378Z,100588.81
2023-01-31T17:35:49.883Z,100592.69
2023-01-31T17:38:17.228Z,100584.53
2023-01-31T17:40:53.267Z,100561.84
2023-01-31T17:43:22.527Z,100557.91
2023-01-31T17:45:49.481Z,100538.25
2023-01-31T17:48:26.349Z,100554.59
2023-01-31T17:50:54.493Z,100546.38
2023-01-31T17:53:21.632Z,100558.88
2023-01-31T17:55:49.218Z,100548.75
2023-01-31T17:58:18.264Z,100533.81
2023-01-31T18:00:46.766Z,100527.22
2023-01-31T18:03:22.802Z,100550.38
2023-01-31T18:05:50.252Z,100488.47
2023-01-31T18:08:17.597Z,100483.81
2023-01-31T18:10:45.450Z,100481.00
2023-01-31T18:13:13.031Z,100507.78
2023-01-31T18:15:40.110Z,100499.94
2023-01-31T18:18:08.710Z,100507.09
2023-01-31T18:20:46.495Z,100493.78
2023-01-31T18:23:13.684Z,100505.25
2023-01-31T18:25:41.033Z,100497.84
2023-01-31T18:28:08.001Z,100516.63
2023-01-31T18:30:34.868Z,100495.91
2023-01-31T18:33:01.877Z,100499.38
2023-01-31T18:35:28.870Z,100534.16
2023-01-31T18:37:55.835Z,100488.66
2023-01-31T18:40:22.764Z,100491.69
2023-01-31T18:42:49.656Z,100489.59
2023-01-31T18:45:16.731Z,100488.56
2023-01-31T18:47:43.991Z,100467.97
2023-01-31T18:50:11.313Z,100484.75
2023-01-31T18:52:42.058Z,100477.94
2023-01-31T18:55:10.004Z,100461.72
2023-01-31T18:57:36.852Z,100461.16
2023-01-31T19:00:05.494Z,100469.97
2023-01-31T19:02:32.574Z,100467.28
2023-01-31T19:04:59.512Z,100470.53
2023-01-31T19:07:26.615Z,100480.75
2023-01-31T19:09:53.554Z,100478.31
2023-01-31T19:12:20.645Z,100482.72
2023-01-31T19:14:48.316Z,100469.72
2023-01-31T19:17:15.830Z,100473.09
2023-01-31T19:19:42.984Z,100475.78
2023-01-31T19:22:10.083Z,100496.28
2023-01-31T19:24:36.985Z,100485.63
2023-01-31T19:27:03.899Z,100513.31
2023-01-31T19:29:30.818Z,100539.28
2023-01-31T19:31:57.850Z,100510.31
2023-01-31T19:34:24.912Z,100544.31
2023-01-31T19:36:51.813Z,100536.22
2023-01-31T19:39:19.031Z,100519.16
2023-01-31T19:41:45.973Z,100508.94
2023-01-31T19:44:12.906Z,100494.59
2023-01-31T19:46:39.846Z,100494.97
2023-01-31T19:49:07.220Z,100529.66
2023-01-31T19:51:35.356Z,100483.34
2023-01-31T19:54:03.124Z,100498.16
2023-01-31T19:56:31.324Z,100495.78
2023-01-31T19:58:58.396Z,100511.72
2023-01-31T20:01:25.870Z,100516.66
2023-01-31T20:03:54.791Z,100523.44
2023-01-31T20:06:25.973Z,100527.56
2023-01-31T20:08:56.086Z,100526.16
2023-01-31T20:11:25.259Z,100516.75
2023-01-31T20:13:53.991Z,100526.19
2023-01-31T20:16:22.872Z,100551.13
2023-01-31T20:18:51.237Z,100556.44
2023-01-31T20:21:20.635Z,100545.38
2023-01-31T20:23:48.679Z,100531.88
2023-01-31T20:26:17.956Z,100537.19
2023-01-31T20:28:45.107Z,100542.50
2023-01-31T20:31:14.915Z,100550.69
2023-01-31T20:33:42.077Z,100540.06
2023-01-31T20:36:09.435Z,100567.06
2023-01-31T20:38:38.818Z,100564.63
2023-01-31T20:41:08.472Z,100572.81
2023-01-31T20:43:36.254Z,100567.94
2023-01-31T20:46:10.099Z,100561.41
2023-01-31T20:48:38.127Z,100576.75
2023-01-31T20:51:06.266Z,100570.84
2023-01-31T20:53:34.319Z,100580.84
2023-01-31T20:56:09.765Z,100582.91
2023-01-31T20:58:43.085Z,100580.25
2023-01-31T21:01:11.171Z,100579.66
2023-01-31T21:03:38.598Z,100579.66
2023-01-31T21:06:06.714Z,100591.50
2023-01-31T21:08:35.631Z,100587.00
2023-01-31T21:11:07.836Z,100612.53
2023-01-31T21:13:35.466Z,100616.03
2023-01-31T21:16:05.453Z,100617.44
2023-01-31T21:18:36.783Z,100617.66
2023-01-31T21:21:07.349Z,100616.63
2023-01-31T21:23:35.418Z,100629.91
2023-01-31T21:26:04.845Z,100629.28
2023-01-31T21:28:32.450Z,100623.75
2023-01-31T21:31:05.088Z,100628.03
2023-01-31T21:33:32.705Z,100626.16
2023-01-31T21:36:00.636Z,100630.03
2023-01-31T21:38:28.009Z,100633.66
2023-01-31T21:41:14.905Z,100628.72
2023-01-31T21:43:41.928Z,100638.09
2023-01-31T21:46:09.834Z,100634.41
2023-01-31T21:48:38.272Z,100672.00
2023-01-31T21:51:11.986Z,100704.72
2023-01-31T21:53:39.927Z,100674.09
2023-01-31T21:56:10.831Z,100654.69
2023-01-31T21:58:39.448Z,100627.97
2023-01-31T22:01:10.696Z,100620.03
2023-01-31T22:03:40.115Z,100631.94
2023-01-31T22:06:11.542Z,100644.63
2023-01-31T22:08:38.852Z,100634.03
2023-01-31T22:11:12.274Z,100646.50
2023-01-31T22:13:43.130Z,100641.22
2023-01-31T22:16:11.577Z,100636.97
2023-01-31T22:18:40.059Z,100630.84
2023-01-31T22:21:23.709Z,100625.53
2023-01-31T22:23:54.005Z,100631.06
2023-01-31T22:26:36.373Z,100635.38
2023-01-31T22:29:07.031Z,100642.09
2023-01-31T22:31:34.806Z,100648.25
2023-01-31T22:34:04.740Z,100633.16
2023-01-31T22:36:33.473Z,100630.91
2023-01-31T22:39:01.217Z,100625.59
2023-01-31T22:41:28.819Z,100619.88
2023-01-31T22:43:56.256Z,100629.28
2023-01-31T22:46:27.530Z,100632.53
2023-01-31T22:48:55.716Z,100630.09
2023-01-31T22:51:26.310Z,100641.31
2023-01-31T22:53:55.555Z,100635.59
2023-01-31T22:56:26.665Z,100626.00
2023-01-31T22:59:03.251Z,100623.75
2023-01-31T23:01:35.147Z,100627.22
2023-01-31T23:04:06.983Z,100631.09
2023-01-31T23:06:35.517Z,100629.47
2023-01-31T23:09:03.114Z,100633.13
2023-01-31T23:11:30.114Z,100634.16
2023-01-31T23:13:57.556Z,100627.81
2023-01-31T23:16:46.005Z,100639.84
2023-01-31T23:19:14.497Z,100626.97
2023-01-31T23:21:42.987Z,100647.19
2023-01-31T23:24:12.441Z,100636.16
2023-01-31T23:26:39.356Z,100639.00
2023-01-31T23:29:06.653Z,100646.13
2023-01-31T23:31:33.743Z,100631.63
2023-01-31T23:34:00.921Z,100628.53
2023-01-31T23:36:28.623Z,100616.47
2023-01-31T23:38:55.483Z,100633.19
2023-01-31T23:41:22.677Z,100631.75
2023-01-31T23:43:49.630Z,100624.56
2023-01-31T23:46:16.582Z,100635.78
2023-01-31T23:48:43.455Z,100634.13
2023-01-31T23:51:10.455Z,100626.97
2023-01-31T23:53:37.435Z,100624.72
2023-01-31T23:56:04.790Z,100628.56
2023-01-31T23:58:31.708Z,100658.19
